createdAt,value
2023-04-30T00:01:15.756Z,15.65
2023-04-30T00:03:46.975Z,16.20
2023-04-30T00:06:17.897Z,15.10
2023-04-30T00:08:48.789Z,17.48
2023-04-30T00:11:19.878Z,15.48
2023-04-30T00:13:53.687Z,16.77
2023-04-30T00:16:24.564Z,16.38
2023-04-30T00:18:55.424Z,16.33
2023-04-30T00:21:26.557Z,16.70
2023-04-30T00:23:57.736Z,16.00
2023-04-30T00:26:28.542Z,15.60
2023-04-30T00:29:02.092Z,16.42
2023-04-30T00:31:32.885Z,15.32
2023-04-30T00:34:03.886Z,15.98
2023-04-30T00:36:34.973Z,16.52
2023-04-30T00:39:06.416Z,15.68
2023-04-30T00:41:38.849Z,16.98
2023-04-30T00:44:12.382Z,16.90
2023-04-30T00:46:43.321Z,16.65
2023-04-30T00:49:14.256Z,16.63
2023-04-30T00:51:45.646Z,17.17
2023-04-30T00:54:16.710Z,16.40
2023-04-30T00:56:47.716Z,16.95
2023-04-30T00:59:21.576Z,16.50
2023-04-30T01:01:52.459Z,16.95
2023-04-30T01:04:23.743Z,15.98
2023-04-30T01:06:54.727Z,16.08
2023-04-30T01:09:26.343Z,16.20
2023-04-30T01:12:08.937Z,16.48
2023-04-30T01:14:56.594Z,16.15
2023-04-30T01:17:35.347Z,15.45
2023-04-30T01:20:07.684Z,15.60
2023-04-30T01:22:54.117Z,15.35
2023-04-30T01:25:39.420Z,14.55
2023-04-30T01:28:16.801Z,15.70
2023-04-30T01:30:48.430Z,14.85
2023-04-30T01:33:19.776Z,14.55
2023-04-30T01:36:13.850Z,14.73
2023-04-30T01:39:07.198Z,14.48
2023-04-30T01:41:43.576Z,15.18
2023-04-30T01:44:34.868Z,15.77
2023-04-30T01:47:10.867Z,14.75
2023-04-30T01:49:54.485Z,14.85
2023-04-30T01:52:34.843Z,15.40
2023-04-30T01:55:12.057Z,15.43
2023-04-30T01:57:47.232Z,14.45
2023-04-30T02:00:20.955Z,14.45
2023-04-30T02:02:51.930Z,14.45
2023-04-30T02:05:22.987Z,15.07
2023-04-30T02:07:55.448Z,14.77
2023-04-30T02:10:29.768Z,16.08
2023-04-30T02:13:00.740Z,15.25
2023-04-30T02:15:34.155Z,13.38
2023-04-30T02:18:04.960Z,14.80
2023-04-30T02:20:35.900Z,14.48
2023-04-30T02:23:06.796Z,13.77
2023-04-30T02:25:39.009Z,15.02
2023-04-30T02:28:10.277Z,14.23
2023-04-30T02:30:43.676Z,13.70
2023-04-30T02:33:14.631Z,14.13
2023-04-30T02:35:46.661Z,13.40
2023-04-30T02:38:17.645Z,14.00
2023-04-30T02:40:48.622Z,13.65
2023-04-30T02:43:19.613Z,13.52
2023-04-30T02:45:53.533Z,13.27
2023-04-30T02:48:24.431Z,13.60
2023-04-30T02:50:55.346Z,12.63
2023-04-30T02:53:26.281Z,13.13
2023-04-30T02:55:57.159Z,13.43
2023-04-30T02:58:28.188Z,13.73
2023-04-30T03:01:02.644Z,13.45
2023-04-30T03:03:34.093Z,12.73
2023-04-30T03:06:05.174Z,13.63
2023-04-30T03:08:36.172Z,13.38
2023-04-30T03:11:07.002Z,13.73
2023-04-30T03:13:38.011Z,13.75
2023-04-30T03:16:11.665Z,12.63
2023-04-30T03:18:42.626Z,11.98
2023-04-30T03:21:13.510Z,12.32
2023-04-30T03:23:44.361Z,11.23
2023-04-30T03:26:15.285Z,10.65
2023-04-30T03:28:46.140Z,11.43
2023-04-30T03:31:19.727Z,10.82
2023-04-30T03:33:50.680Z,10.75
2023-04-30T03:36:22.682Z,9.40
2023-04-30T03:38:53.510Z,10.18
2023-04-30T03:41:24.557Z,10.65
2023-04-30T03:43:55.628Z,10.88
2023-04-30T03:46:29.394Z,11.35
2023-04-30T03:49:00.234Z,10.57
2023-04-30T03:51:31.524Z,11.43
2023-04-30T03:54:02.364Z,10.60
2023-04-30T03:56:33.224Z,10.95
2023-04-30T03:59:04.889Z,10.25
2023-04-30T04:01:39.440Z,10.73
2023-04-30T04:04:10.854Z,11.43
2023-04-30T04:06:41.874Z,11.55
2023-04-30T04:09:13.092Z,10.75
2023-04-30T04:11:46.035Z,10.85
2023-04-30T04:14:16.960Z,10.65
2023-04-30T04:16:51.168Z,11.60
2023-04-30T04:19:22.741Z,11.00
2023-04-30T04:21:54.206Z,11.65
2023-04-30T04:24:25.364Z,10.50
2023-04-30T04:26:56.603Z,10.52
2023-04-30T04:29:27.635Z,11.68
2023-04-30T04:32:03.147Z,11.77
2023-04-30T04:34:35.235Z,11.82
2023-04-30T04:37:06.249Z,12.32
2023-04-30T04:39:37.685Z,12.15
2023-04-30T04:42:08.921Z,12.07
2023-04-30T04:44:39.750Z,12.55
2023-04-30T04:47:13.299Z,12.20
2023-04-30T04:49:44.073Z,12.45
2023-04-30T04:52:15.021Z,12.35
2023-04-30T04:54:45.868Z,12.98
2023-04-30T04:57:16.685Z,11.90
2023-04-30T04:59:47.500Z,13.23
2023-04-30T05:02:21.595Z,11.75
2023-04-30T05:04:53.834Z,12.52
2023-04-30T05:07:24.662Z,12.25
2023-04-30T05:09:55.965Z,12.82
2023-04-30T05:12:27.088Z,12.98
2023-04-30T05:14:57.926Z,13.00
2023-04-30T05:17:31.456Z,12.52
2023-04-30T05:20:02.324Z,13.93
2023-04-30T05:22:33.409Z,13.70
2023-04-30T05:25:04.490Z,12.85
2023-04-30T05:27:36.425Z,13.73
2023-04-30T05:30:07.778Z,13.00
2023-04-30T05:32:41.682Z,14.55
2023-04-30T05:35:13.332Z,14.30
2023-04-30T05:37:44.157Z,13.45
2023-04-30T05:40:16.450Z,13.55
2023-04-30T05:42:47.415Z,14.05
2023-04-30T05:45:18.265Z,14.20
2023-04-30T05:47:51.877Z,14.32
2023-04-30T05:50:22.815Z,14.45
2023-04-30T05:52:53.710Z,14.77
2023-04-30T05:55:24.625Z,14.73
2023-04-30T05:57:55.465Z,13.95
2023-04-30T06:00:26.562Z,13.90
2023-04-30T06:03:00.156Z,14.75
2023-04-30T06:05:31.284Z,14.25
2023-04-30T06:08:02.252Z,14.82
2023-04-30T06:10:33.491Z,14.15
2023-04-30T06:13:05.078Z,14.43
2023-04-30T06:15:36.378Z,14.55
2023-04-30T06:18:10.018Z,14.68
2023-04-30T06:20:41.600Z,15.70
2023-04-30T06:23:13.310Z,15.55
2023-04-30T06:25:45.289Z,14.80
2023-04-30T06:28:16.613Z,14.80
2023-04-30T06:30:47.673Z,15.27
2023-04-30T06:33:21.228Z,16.98
2023-04-30T06:35:55.684Z,15.00
2023-04-30T06:38:26.624Z,16.02
2023-04-30T06:40:57.735Z,15.30
2023-04-30T06:43:31.800Z,15.70
2023-04-30T06:46:04.155Z,15.93
2023-04-30T06:48:37.589Z,16.38
2023-04-30T06:51:10.492Z,14.73
2023-04-30T06:53:41.874Z,16.42
2023-04-30T06:56:12.772Z,15.43
2023-04-30T06:58:43.636Z,15.10
2023-04-30T07:01:14.624Z,15.75
2023-04-30T07:03:48.236Z,16.05
2023-04-30T07:06:19.204Z,16.58
2023-04-30T07:08:50.147Z,16.05
2023-04-30T07:11:20.983Z,15.98
2023-04-30T07:13:51.829Z,15.98
2023-04-30T07:16:22.724Z,15.63
2023-04-30T07:18:56.224Z,15.73
2023-04-30T07:21:28.106Z,16.02
2023-04-30T07:23:59.008Z,15.35
2023-04-30T07:26:29.892Z,15.80
2023-04-30T07:29:00.769Z,15.48
2023-04-30T07:31:31.716Z,15.80
2023-04-30T07:34:05.296Z,15.30
2023-04-30T07:36:36.167Z,15.85
2023-04-30T07:39:08.489Z,16.83
2023-04-30T07:41:39.367Z,16.40
2023-04-30T07:44:11.972Z,15.90
2023-04-30T07:46:43.183Z,15.85
2023-04-30T07:49:16.787Z,15.73
2023-04-30T07:51:47.636Z,16.42
2023-04-30T07:54:18.495Z,15.68
2023-04-30T07:56:49.410Z,15.02
2023-04-30T07:59:21.711Z,15.32
2023-04-30T08:01:52.735Z,16.40
2023-04-30T08:04:26.321Z,15.50
2023-04-30T08:06:57.236Z,15.13
2023-04-30T08:09:28.156Z,16.58
2023-04-30T08:11:58.978Z,17.23
2023-04-30T08:14:29.865Z,15.45
2023-04-30T08:17:01.368Z,15.88
2023-04-30T08:19:35.091Z,18.35
2023-04-30T08:22:06.210Z,16.42
2023-04-30T08:24:37.093Z,17.77
2023-04-30T08:27:08.200Z,16.77
2023-04-30T08:29:39.146Z,19.90
2023-04-30T08:32:10.454Z,18.63
2023-04-30T08:34:44.498Z,18.25
2023-04-30T08:37:16.236Z,19.63
2023-04-30T08:39:47.123Z,18.42
2023-04-30T08:42:18.575Z,18.80
2023-04-30T08:44:49.547Z,18.25
2023-04-30T08:47:21.623Z,17.80
2023-04-30T08:49:56.546Z,16.88
2023-04-30T08:52:29.861Z,17.05
2023-04-30T08:55:02.594Z,16.95
2023-04-30T08:57:34.518Z,16.98
2023-04-30T09:00:06.629Z,16.88
2023-04-30T09:02:38.922Z,16.83
2023-04-30T09:05:15.908Z,16.98
2023-04-30T09:08:02.496Z,15.98
2023-04-30T09:10:37.124Z,16.20
2023-04-30T09:13:12.273Z,16.73
2023-04-30T09:15:46.098Z,11.13
2023-04-30T09:18:18.739Z,15.90
2023-04-30T09:21:03.879Z,14.82
2023-04-30T09:23:34.843Z,16.13
2023-04-30T09:26:05.735Z,14.65
2023-04-30T09:28:37.170Z,14.95
2023-04-30T09:31:23.297Z,14.88
2023-04-30T09:33:55.253Z,14.48
2023-04-30T09:36:28.863Z,14.30
2023-04-30T09:39:00.464Z,15.40
2023-04-30T09:41:32.247Z,14.23
2023-04-30T09:44:03.130Z,15.05
2023-04-30T09:46:35.113Z,14.40
2023-04-30T09:49:07.615Z,15.15
2023-04-30T09:51:57.664Z,13.93
2023-04-30T09:54:30.375Z,13.77
2023-04-30T09:57:02.563Z,14.65
2023-04-30T09:59:35.683Z,14.18
2023-04-30T10:02:08.166Z,13.60
2023-04-30T10:04:40.716Z,13.25
2023-04-30T10:07:20.816Z,14.05
2023-04-30T10:09:55.008Z,13.80
2023-04-30T10:12:30.525Z,14.63
2023-04-30T10:15:09.642Z,13.70
2023-04-30T10:17:44.539Z,13.82
2023-04-30T10:20:17.151Z,14.05
2023-04-30T10:22:52.264Z,13.57
2023-04-30T10:25:23.351Z,13.80
2023-04-30T10:27:54.891Z,8.02
2023-04-30T10:30:27.262Z,11.93
2023-04-30T10:33:08.820Z,11.57
2023-04-30T10:35:48.382Z,13.02
2023-04-30T10:38:26.296Z,12.82
2023-04-30T10:41:00.160Z,14.45
2023-04-30T10:43:33.657Z,10.25
2023-04-30T10:46:05.309Z,14.55
2023-04-30T10:48:38.259Z,13.82
2023-04-30T10:51:11.926Z,12.25
2023-04-30T10:53:47.677Z,13.45
2023-04-30T10:56:33.356Z,13.07
2023-04-30T10:59:05.555Z,13.05
2023-04-30T11:02:00.942Z,12.77
2023-04-30T11:04:34.196Z,13.82
2023-04-30T11:07:12.156Z,14.02
2023-04-30T11:09:52.252Z,14.73
2023-04-30T11:12:28.856Z,14.25
2023-04-30T11:15:09.162Z,12.65
2023-04-30T11:17:41.720Z,13.95
2023-04-30T11:20:16.574Z,13.68
2023-04-30T11:22:48.835Z,8.52
2023-04-30T11:25:26.497Z,14.00
2023-04-30T11:28:01.219Z,15.35
2023-04-30T11:30:33.181Z,15.20
2023-04-30T11:33:04.728Z,12.18
2023-04-30T11:35:36.872Z,14.85
2023-04-30T11:38:09.007Z,14.55
2023-04-30T11:40:43.761Z,15.80
2023-04-30T11:43:25.814Z,15.02
2023-04-30T11:46:11.454Z,15.38
2023-04-30T11:48:44.035Z,14.93
2023-04-30T11:51:19.280Z,15.25
2023-04-30T11:53:51.919Z,12.45
2023-04-30T11:56:28.069Z,15.30
2023-04-30T11:58:59.181Z,15.17
2023-04-30T12:01:31.942Z,14.07
2023-04-30T12:04:04.453Z,9.05
2023-04-30T12:06:35.989Z,13.07
2023-04-30T12:09:10.311Z,12.18
2023-04-30T12:11:43.977Z,7.53
2023-04-30T12:14:15.617Z,13.55
2023-04-30T12:17:09.510Z,12.80
2023-04-30T12:19:46.519Z,12.45
2023-04-30T12:22:25.306Z,11.88
2023-04-30T12:24:58.809Z,10.30
2023-04-30T12:27:32.336Z,6.60
2023-04-30T12:30:09.194Z,9.38
2023-04-30T12:35:39.722Z,7.25
2023-04-30T12:38:11.252Z,8.25
2023-04-30T12:40:42.257Z,5.50
2023-04-30T12:43:19.757Z,7.03
2023-04-30T12:45:52.720Z,6.43
2023-04-30T12:48:25.470Z,6.30
2023-04-30T12:50:58.218Z,4.25
2023-04-30T12:53:29.365Z,5.43
2023-04-30T12:56:15.694Z,5.57
2023-04-30T12:58:51.470Z,4.57
2023-04-30T13:01:24.742Z,6.07
2023-04-30T13:03:56.512Z,5.13
2023-04-30T13:06:27.996Z,4.75
2023-04-30T13:08:59.516Z,4.30
2023-04-30T13:11:30.430Z,5.00
2023-04-30T13:14:04.292Z,5.30
2023-04-30T13:16:38.057Z,5.82
2023-04-30T13:19:10.264Z,5.50
2023-04-30T13:21:41.418Z,4.60
2023-04-30T13:24:12.327Z,6.75
2023-04-30T13:26:43.567Z,5.88
2023-04-30T13:29:17.081Z,6.57
2023-04-30T13:31:49.153Z,6.45
2023-04-30T13:34:20.256Z,5.28
2023-04-30T13:36:52.400Z,4.05
2023-04-30T13:39:23.670Z,4.80
2023-04-30T13:41:55.288Z,4.30
2023-04-30T13:44:29.077Z,4.63
2023-04-30T13:47:00.047Z,4.97
2023-04-30T13:49:31.255Z,3.78
2023-04-30T13:52:02.424Z,4.25
2023-04-30T13:54:33.357Z,4.40
2023-04-30T13:57:04.681Z,5.43
2023-04-30T13:59:38.880Z,4.47
2023-04-30T14:02:11.361Z,4.40
2023-04-30T14:04:51.471Z,4.40
2023-04-30T14:07:29.445Z,4.60
2023-04-30T14:10:01.041Z,5.30
2023-04-30T14:12:33.506Z,4.40
2023-04-30T14:15:09.355Z,5.07
2023-04-30T14:17:41.464Z,4.90
2023-04-30T14:20:14.405Z,5.28
2023-04-30T14:22:46.165Z,4.22
2023-04-30T14:25:17.673Z,4.35
2023-04-30T14:27:53.995Z,4.25
2023-04-30T14:30:30.299Z,3.83
2023-04-30T14:33:03.038Z,4.65
2023-04-30T14:35:36.069Z,4.00
2023-04-30T14:38:08.247Z,4.38
2023-04-30T14:40:40.849Z,4.78
2023-04-30T14:43:12.737Z,4.55
2023-04-30T14:45:46.519Z,5.03
2023-04-30T14:48:17.369Z,5.18
2023-04-30T14:50:48.419Z,5.47
2023-04-30T14:53:20.155Z,4.80
2023-04-30T15:04:23.014Z,4.90
2023-04-30T15:06:54.395Z,5.13
2023-04-30T15:09:25.325Z,5.18
2023-04-30T15:12:08.782Z,5.30
2023-04-30T15:14:44.432Z,4.72
2023-04-30T15:17:21.509Z,4.97
2023-04-30T15:19:55.464Z,4.63
2023-04-30T15:22:33.723Z,4.50
2023-04-30T15:25:07.780Z,4.40
2023-04-30T15:28:04.094Z,3.40
2023-04-30T15:30:35.274Z,2.90
2023-04-30T15:33:06.147Z,2.67
2023-04-30T15:35:40.917Z,2.83
2023-04-30T15:38:12.282Z,3.05
2023-04-30T15:40:43.356Z,3.10
2023-04-30T15:43:14.383Z,3.22
2023-04-30T15:45:46.382Z,3.47
2023-04-30T15:48:17.410Z,3.25
2023-04-30T15:50:50.829Z,3.17
2023-04-30T15:53:22.070Z,3.97
2023-04-30T15:55:53.692Z,3.42
2023-04-30T15:58:30.703Z,3.95
2023-04-30T16:01:02.345Z,3.80
2023-04-30T16:03:34.210Z,3.85
2023-04-30T16:06:08.133Z,4.55
2023-04-30T16:08:39.329Z,4.25
2023-04-30T16:11:12.112Z,3.85
2023-04-30T16:13:44.345Z,4.50
2023-04-30T16:16:15.363Z,5.78
2023-04-30T16:18:46.628Z,5.20
2023-04-30T16:21:20.649Z,5.88
2023-04-30T16:23:57.014Z,5.53
2023-04-30T16:26:27.962Z,6.78
2023-04-30T16:28:59.008Z,6.93
2023-04-30T16:31:29.995Z,6.40
2023-04-30T16:34:03.647Z,7.03
2023-04-30T16:36:37.077Z,7.15
2023-04-30T16:39:08.140Z,6.32
2023-04-30T16:41:39.242Z,5.78
2023-04-30T16:44:11.572Z,6.07
2023-04-30T16:46:42.493Z,6.25
2023-04-30T16:49:13.470Z,4.45
2023-04-30T16:51:46.966Z,5.50
2023-04-30T16:54:17.867Z,4.63
2023-04-30T16:56:48.835Z,5.30
2023-04-30T16:59:19.678Z,5.07
2023-04-30T17:01:50.636Z,5.50
2023-04-30T17:04:21.544Z,6.25
2023-04-30T17:06:55.428Z,4.97
2023-04-30T17:09:26.373Z,5.72
2023-04-30T17:11:57.216Z,5.97
2023-04-30T17:14:28.884Z,5.88
2023-04-30T17:16:59.763Z,5.10
2023-04-30T17:19:30.617Z,5.78
2023-04-30T17:22:04.614Z,5.90
2023-04-30T17:24:35.446Z,5.00
2023-04-30T17:27:06.245Z,5.63
2023-04-30T17:29:37.196Z,4.28
2023-04-30T17:32:09.300Z,3.70
2023-04-30T17:34:40.865Z,4.80
2023-04-30T17:37:14.318Z,4.78
2023-04-30T17:39:45.065Z,3.95
2023-04-30T17:42:16.669Z,4.40
2023-04-30T17:44:49.137Z,4.30
2023-04-30T17:47:20.098Z,4.28
2023-04-30T17:49:50.998Z,4.15
2023-04-30T17:52:24.558Z,3.75
2023-04-30T17:54:57.164Z,4.03
2023-04-30T17:57:28.068Z,4.15
2023-04-30T17:59:59.223Z,4.85
2023-04-30T18:02:30.468Z,3.40
2023-04-30T18:05:01.335Z,4.22
2023-04-30T18:07:34.823Z,4.28
2023-04-30T18:10:05.754Z,4.50
2023-04-30T18:12:36.725Z,4.95
2023-04-30T18:15:08.827Z,4.65
2023-04-30T18:17:40.123Z,3.90
2023-04-30T18:20:12.706Z,4.30
2023-04-30T18:22:46.850Z,4.80
2023-04-30T18:25:19.579Z,5.00
2023-04-30T18:27:50.421Z,4.57
2023-04-30T18:30:21.378Z,5.18
2023-04-30T18:32:52.279Z,6.03
2023-04-30T18:35:24.239Z,3.60
2023-04-30T18:37:58.453Z,4.63
2023-04-30T18:40:29.489Z,4.97
2023-04-30T18:43:00.371Z,5.25
2023-04-30T18:45:31.322Z,5.22
2023-04-30T18:48:02.372Z,5.13
2023-04-30T18:50:33.350Z,5.13
2023-04-30T18:53:07.355Z,5.47
2023-04-30T18:55:38.498Z,6.18
2023-04-30T18:58:09.913Z,5.68
2023-04-30T19:00:42.912Z,5.35
2023-04-30T19:03:14.133Z,5.65
2023-04-30T19:05:45.437Z,5.22
2023-04-30T19:08:18.832Z,4.97
2023-04-30T19:10:53.579Z,5.20
2023-04-30T19:13:24.431Z,5.57
2023-04-30T19:15:56.292Z,5.40
2023-04-30T19:18:27.143Z,5.50
2023-04-30T19:21:00.576Z,6.07
2023-04-30T19:23:35.573Z,5.97
2023-04-30T19:26:06.451Z,5.97
2023-04-30T19:28:37.454Z,5.70
2023-04-30T19:31:09.076Z,6.22
2023-04-30T19:33:41.387Z,5.90
2023-04-30T19:36:13.106Z,5.88
2023-04-30T19:38:46.925Z,5.70
2023-04-30T19:41:17.842Z,6.00
2023-04-30T19:43:48.645Z,6.13
2023-04-30T19:46:19.578Z,6.53
2023-04-30T19:48:50.817Z,5.82
2023-04-30T19:51:22.054Z,6.80
2023-04-30T19:53:55.682Z,7.38
2023-04-30T19:56:26.773Z,6.40
2023-04-30T19:58:57.991Z,6.47
2023-04-30T20:01:28.942Z,6.70
2023-04-30T20:03:59.944Z,7.07
2023-04-30T20:06:31.801Z,7.50
2023-04-30T20:09:05.914Z,7.50
2023-04-30T20:11:36.780Z,7.88
2023-04-30T20:14:08.629Z,7.22
2023-04-30T20:16:39.569Z,7.28
2023-04-30T20:19:11.021Z,7.40
2023-04-30T20:21:42.203Z,8.35
2023-04-30T20:24:15.699Z,7.93
2023-04-30T20:26:46.807Z,8.90
2023-04-30T20:29:18.904Z,8.52
2023-04-30T20:31:49.965Z,8.75
2023-04-30T20:34:20.898Z,9.00
2023-04-30T20:36:53.039Z,8.80
2023-04-30T20:39:27.085Z,8.95
2023-04-30T20:41:59.346Z,9.18
2023-04-30T20:44:30.254Z,9.77
2023-04-30T20:47:01.486Z,9.65
2023-04-30T20:49:32.646Z,4.63
2023-04-30T20:55:22.540Z,9.70
2023-04-30T20:57:53.575Z,10.15
2023-04-30T21:00:24.625Z,10.68
2023-04-30T21:02:55.674Z,10.60
2023-04-30T21:05:27.368Z,10.02
2023-04-30T21:08:01.707Z,10.18
2023-04-30T21:10:36.840Z,9.95
2023-04-30T21:13:09.794Z,9.50
2023-04-30T21:15:43.477Z,10.50
2023-04-30T21:18:14.361Z,9.50
2023-04-30T21:20:45.353Z,9.88
2023-04-30T21:23:16.363Z,11.07
2023-04-30T21:25:49.871Z,10.48
2023-04-30T21:28:20.880Z,9.98
2023-04-30T21:30:52.240Z,11.27
2023-04-30T21:33:23.369Z,9.57
2023-04-30T21:35:54.148Z,10.88
2023-04-30T21:38:24.901Z,11.25
2023-04-30T21:40:58.368Z,10.05
2023-04-30T21:43:29.604Z,11.68
2023-04-30T21:46:05.628Z,11.50
2023-04-30T21:48:38.654Z,11.27
2023-04-30T21:51:15.441Z,11.48
2023-04-30T21:53:46.642Z,10.95
2023-04-30T21:56:21.627Z,9.70
2023-04-30T21:58:52.801Z,10.45
2023-04-30T22:01:27.859Z,9.73
2023-04-30T22:03:59.107Z,9.32
2023-04-30T22:06:30.076Z,10.23
2023-04-30T22:09:00.971Z,10.32
2023-04-30T22:11:34.494Z,9.60
2023-04-30T22:14:05.361Z,10.52
2023-04-30T22:16:36.250Z,12.30
2023-04-30T22:19:07.534Z,11.13
2023-04-30T22:21:38.481Z,10.93
2023-04-30T22:24:09.802Z,11.32
2023-04-30T22:26:43.249Z,10.68
2023-04-30T22:29:14.308Z,10.55
2023-04-30T22:31:45.255Z,9.80
2023-04-30T22:34:19.682Z,9.93
2023-04-30T22:36:50.494Z,8.98
2023-04-30T22:39:21.523Z,7.63
2023-04-30T22:41:56.204Z,8.15
2023-04-30T22:44:27.229Z,5.72
2023-04-30T22:46:59.447Z,6.75
2023-04-30T22:49:32.364Z,6.50
2023-04-30T22:52:04.574Z,6.97
2023-04-30T22:54:35.543Z,6.60
2023-04-30T22:57:09.053Z,6.30
2023-04-30T22:59:40.587Z,7.07
2023-04-30T23:02:11.769Z,7.03
2023-04-30T23:04:42.693Z,7.68
2023-04-30T23:07:13.893Z,6.78
2023-04-30T23:09:45.534Z,7.05
2023-04-30T23:12:19.137Z,6.43
2023-04-30T23:14:50.498Z,7.25
2023-04-30T23:17:21.413Z,6.65
2023-04-30T23:19:53.059Z,7.22
2023-04-30T23:22:24.025Z,7.50
2023-04-30T23:24:57.493Z,8.05
2023-04-30T23:27:31.172Z,7.85
2023-04-30T23:30:02.076Z,7.50
2023-04-30T23:32:33.621Z,6.20
2023-04-30T23:35:04.534Z,6.00
2023-04-30T23:37:35.429Z,6.72
2023-04-30T23:40:07.824Z,5.63
2023-04-30T23:42:41.301Z,5.75
2023-04-30T23:45:13.325Z,6.10
2023-04-30T23:47:44.273Z,5.93
2023-04-30T23:50:15.513Z,5.53
2023-04-30T23:52:46.470Z,5.38
2023-04-30T23:55:19.010Z,5.82
2023-04-30T23:57:52.553Z,5.82
